sensor_id;sensor_type;location;lat;lon;timestamp;pressure;altitude;pressure_sealevel;temperature;humidity
81243;BME280;70716;50.074;14.496;2023-09-19T00:01:06;98403.19;;;16.37;88.41
81243;BME280;70716;50.074;14.496;2023-09-19T00:03:35;98398.72;;;16.29;88.80
81243;BME280;70716;50.074;14.496;2023-09-19T00:06:03;98399.88;;;16.28;88.55
81243;BME280;70716;50.074;14.496;2023-09-19T00:08:33;98397.00;;;16.21;88.66
81243;BME280;70716;50.074;14.496;2023-09-19T00:10:59;98397.72;;;16.17;88.97
81243;BME280;70716;50.074;14.496;2023-09-19T00:13:33;98396.16;;;16.16;89.25
81243;BME280;70716;50.074;14.496;2023-09-19T00:16:01;98403.91;;;16.11;88.64
81243;BME280;70716;50.074;14.496;2023-09-19T00:18:26;98407.03;;;16.09;88.87
81243;BME280;70716;50.074;14.496;2023-09-19T00:20:58;98411.66;;;16.05;88.65
81243;BME280;70716;50.074;14.496;2023-09-19T00:23:23;98407.31;;;16.04;88.77
81243;BME280;70716;50.074;14.496;2023-09-19T00:25:50;98411.59;;;16.02;88.86
81243;BME280;70716;50.074;14.496;2023-09-19T00:28:17;98404.06;;;15.99;89.27
81243;BME280;70716;50.074;14.496;2023-09-19T00:30:44;98407.97;;;15.98;89.37
81243;BME280;70716;50.074;14.496;2023-09-19T00:33:09;98412.16;;;15.92;89.13
81243;BME280;70716;50.074;14.496;2023-09-19T00:35:37;98419.25;;;15.93;88.79
81243;BME280;70716;50.074;14.496;2023-09-19T00:38:03;98420.03;;;15.93;88.80
81243;BME280;70716;50.074;14.496;2023-09-19T00:40:29;98425.19;;;15.95;88.76
81243;BME280;70716;50.074;14.496;2023-09-19T00:42:59;98426.25;;;15.90;88.22
81243;BME280;70716;50.074;14.496;2023-09-19T00:45:27;98421.56;;;15.91;88.22
81243;BME280;70716;50.074;14.496;2023-09-19T00:47:55;98426.63;;;15.89;88.33
81243;BME280;70716;50.074;14.496;2023-09-19T00:50:23;98419.81;;;15.82;88.00
81243;BME280;70716;50.074;14.496;2023-09-19T00:52:53;98418.16;;;15.97;87.45
81243;BME280;70716;50.074;14.496;2023-09-19T00:55:21;98425.53;;;15.93;86.98
81243;BME280;70716;50.074;14.496;2023-09-19T00:57:47;98423.22;;;15.95;87.20
81243;BME280;70716;50.074;14.496;2023-09-19T01:00:15;98416.56;;;15.96;86.44
81243;BME280;70716;50.074;14.496;2023-09-19T01:02:45;98422.44;;;15.95;86.47
81243;BME280;70716;50.074;14.496;2023-09-19T01:05:12;98416.66;;;16.00;86.38
81243;BME280;70716;50.074;14.496;2023-09-19T01:07:40;98407.25;;;16.01;85.83
81243;BME280;70716;50.074;14.496;2023-09-19T01:10:08;98411.16;;;16.00;85.45
81243;BME280;70716;50.074;14.496;2023-09-19T01:21:11;98419.47;;;16.03;84.86
81243;BME280;70716;50.074;14.496;2023-09-19T01:32:29;98414.75;;;16.04;83.53
81243;BME280;70716;50.074;14.496;2023-09-19T01:35:04;98413.53;;;16.01;83.32
81243;BME280;70716;50.074;14.496;2023-09-19T01:37:30;98413.47;;;15.98;83.75
81243;BME280;70716;50.074;14.496;2023-09-19T01:40:04;98409.19;;;16.00;82.83
81243;BME280;70716;50.074;14.496;2023-09-19T01:45:48;98407.47;;;15.92;83.33
81243;BME280;70716;50.074;14.496;2023-09-19T01:51:02;98405.06;;;15.91;83.29
81243;BME280;70716;50.074;14.496;2023-09-19T01:53:33;98405.59;;;15.96;83.22
81243;BME280;70716;50.074;14.496;2023-09-19T01:56:05;98406.09;;;16.02;82.63
81243;BME280;70716;50.074;14.496;2023-09-19T01:58:45;98402.84;;;15.96;83.03
81243;BME280;70716;50.074;14.496;2023-09-19T02:01:24;98404.34;;;15.94;82.58
81243;BME280;70716;50.074;14.496;2023-09-19T02:03:51;98403.63;;;15.97;82.53
81243;BME280;70716;50.074;14.496;2023-09-19T02:06:18;98412.66;;;15.97;82.99
81243;BME280;70716;50.074;14.496;2023-09-19T02:08:45;98400.88;;;15.97;82.60
81243;BME280;70716;50.074;14.496;2023-09-19T02:11:11;98402.47;;;15.98;82.81
81243;BME280;70716;50.074;14.496;2023-09-19T02:13:38;98396.63;;;15.99;82.08
81243;BME280;70716;50.074;14.496;2023-09-19T02:16:04;98398.72;;;16.06;82.28
81243;BME280;70716;50.074;14.496;2023-09-19T02:18:32;98396.09;;;16.13;82.14
81243;BME280;70716;50.074;14.496;2023-09-19T02:21:03;98392.97;;;16.14;81.31
81243;BME280;70716;50.074;14.496;2023-09-19T02:23:33;98391.06;;;16.18;81.21
81243;BME280;70716;50.074;14.496;2023-09-19T02:25:59;98393.03;;;16.18;81.38
81243;BME280;70716;50.074;14.496;2023-09-19T02:28:30;98395.41;;;16.19;81.50
81243;BME280;70716;50.074;14.496;2023-09-19T02:30:57;98392.28;;;16.21;81.57
81243;BME280;70716;50.074;14.496;2023-09-19T02:33:23;98392.66;;;16.19;81.32
81243;BME280;70716;50.074;14.496;2023-09-19T02:35:48;98399.72;;;16.17;81.97
81243;BME280;70716;50.074;14.496;2023-09-19T02:38:14;98398.16;;;16.19;81.83
81243;BME280;70716;50.074;14.496;2023-09-19T02:40:43;98394.25;;;16.21;81.45
81243;BME280;70716;50.074;14.496;2023-09-19T02:43:12;98401.41;;;16.25;81.11
81243;BME280;70716;50.074;14.496;2023-09-19T02:45:38;98395.63;;;16.30;80.44
81243;BME280;70716;50.074;14.496;2023-09-19T02:48:04;98402.78;;;16.35;80.52
81243;BME280;70716;50.074;14.496;2023-09-19T02:50:29;98401.25;;;16.37;80.92
81243;BME280;70716;50.074;14.496;2023-09-19T02:52:55;98400.38;;;16.33;80.56
81243;BME280;70716;50.074;14.496;2023-09-19T02:55:21;98397.56;;;16.30;80.31
81243;BME280;70716;50.074;14.496;2023-09-19T02:57:52;98397.28;;;16.35;80.48
81243;BME280;70716;50.074;14.496;2023-09-19T03:00:19;98396.53;;;16.38;80.45
81243;BME280;70716;50.074;14.496;2023-09-19T03:02:52;98394.59;;;16.38;80.54
81243;BME280;70716;50.074;14.496;2023-09-19T03:05:18;98394.66;;;16.42;80.17
81243;BME280;70716;50.074;14.496;2023-09-19T03:07:44;98395.09;;;16.44;80.13
81243;BME280;70716;50.074;14.496;2023-09-19T03:10:14;98392.03;;;16.49;79.52
81243;BME280;70716;50.074;14.496;2023-09-19T03:12:41;98386.97;;;16.51;78.96
81243;BME280;70716;50.074;14.496;2023-09-19T03:15:09;98393.63;;;16.50;78.97
81243;BME280;70716;50.074;14.496;2023-09-19T03:17:34;98397.53;;;16.49;79.45
81243;BME280;70716;50.074;14.496;2023-09-19T03:20:03;98402.31;;;16.52;79.69
81243;BME280;70716;50.074;14.496;2023-09-19T03:22:34;98401.56;;;16.55;78.84
81243;BME280;70716;50.074;14.496;2023-09-19T03:25:02;98391.84;;;16.61;78.61
81243;BME280;70716;50.074;14.496;2023-09-19T03:27:29;98404.00;;;16.60;79.03
81243;BME280;70716;50.074;14.496;2023-09-19T03:29:55;98404.31;;;16.55;78.81
81243;BME280;70716;50.074;14.496;2023-09-19T03:32:20;98397.66;;;16.56;79.20
81243;BME280;70716;50.074;14.496;2023-09-19T03:34:46;98409.09;;;16.58;79.00
81243;BME280;70716;50.074;14.496;2023-09-19T03:37:13;98407.94;;;16.59;78.83
81243;BME280;70716;50.074;14.496;2023-09-19T03:39:39;98410.75;;;16.63;78.51
81243;BME280;70716;50.074;14.496;2023-09-19T03:42:05;98409.94;;;16.62;78.48
81243;BME280;70716;50.074;14.496;2023-09-19T03:44:32;98397.28;;;16.58;78.63
81243;BME280;70716;50.074;14.496;2023-09-19T03:46:58;98399.63;;;16.56;78.57
81243;BME280;70716;50.074;14.496;2023-09-19T03:49:23;98402.22;;;16.48;78.91
81243;BME280;70716;50.074;14.496;2023-09-19T03:51:50;98392.41;;;16.47;79.64
81243;BME280;70716;50.074;14.496;2023-09-19T03:54:15;98400.16;;;16.42;79.21
81243;BME280;70716;50.074;14.496;2023-09-19T03:56:45;98399.41;;;16.45;80.01
81243;BME280;70716;50.074;14.496;2023-09-19T03:59:13;98415.50;;;16.43;79.40
81243;BME280;70716;50.074;14.496;2023-09-19T04:01:39;98411.59;;;16.44;79.69
81243;BME280;70716;50.074;14.496;2023-09-19T04:04:06;98415.91;;;16.45;79.70
81243;BME280;70716;50.074;14.496;2023-09-19T04:06:35;98422.22;;;16.45;79.63
81243;BME280;70716;50.074;14.496;2023-09-19T04:09:04;98417.16;;;16.47;79.47
81243;BME280;70716;50.074;14.496;2023-09-19T04:11:33;98424.16;;;16.45;79.85
81243;BME280;70716;50.074;14.496;2023-09-19T04:13:59;98428.09;;;16.44;79.67
81243;BME280;70716;50.074;14.496;2023-09-19T04:16:24;98425.25;;;16.40;79.94
81243;BME280;70716;50.074;14.496;2023-09-19T04:18:50;98423.59;;;16.36;80.46
81243;BME280;70716;50.074;14.496;2023-09-19T04:21:15;98431.78;;;16.32;80.33
81243;BME280;70716;50.074;14.496;2023-09-19T04:23:43;98429.53;;;16.38;80.24
81243;BME280;70716;50.074;14.496;2023-09-19T04:26:08;98433.81;;;16.35;80.29
81243;BME280;70716;50.074;14.496;2023-09-19T04:28:34;98447.63;;;16.39;80.45
81243;BME280;70716;50.074;14.496;2023-09-19T04:31:00;98445.00;;;16.46;80.04
81243;BME280;70716;50.074;14.496;2023-09-19T04:33:28;98454.50;;;16.48;79.84
81243;BME280;70716;50.074;14.496;2023-09-19T04:35:53;98458.03;;;16.49;80.31
81243;BME280;70716;50.074;14.496;2023-09-19T04:38:19;98458.09;;;16.52;80.30
81243;BME280;70716;50.074;14.496;2023-09-19T04:40:48;98464.91;;;16.59;79.93
81243;BME280;70716;50.074;14.496;2023-09-19T04:43:14;98466.13;;;16.61;79.88
81243;BME280;70716;50.074;14.496;2023-09-19T04:45:40;98474.25;;;16.54;79.94
81243;BME280;70716;50.074;14.496;2023-09-19T04:48:07;98465.50;;;16.48;80.18
81243;BME280;70716;50.074;14.496;2023-09-19T04:50:36;98476.06;;;16.46;80.42
81243;BME280;70716;50.074;14.496;2023-09-19T04:53:03;98480.34;;;16.44;80.33
81243;BME280;70716;50.074;14.496;2023-09-19T04:55:29;98483.53;;;16.46;80.37
81243;BME280;70716;50.074;14.496;2023-09-19T04:57:55;98493.66;;;16.42;80.69
81243;BME280;70716;50.074;14.496;2023-09-19T05:00:22;98497.56;;;16.41;80.59
81243;BME280;70716;50.074;14.496;2023-09-19T05:02:55;98500.03;;;16.46;80.67
81243;BME280;70716;50.074;14.496;2023-09-19T05:05:22;98498.56;;;16.52;80.01
81243;BME280;70716;50.074;14.496;2023-09-19T05:07:50;98506.97;;;16.59;79.76
81243;BME280;70716;50.074;14.496;2023-09-19T05:10:17;98498.78;;;16.63;79.48
81243;BME280;70716;50.074;14.496;2023-09-19T05:12:44;98507.81;;;16.63;79.29
81243;BME280;70716;50.074;14.496;2023-09-19T05:15:12;98517.34;;;16.66;79.17
81243;BME280;70716;50.074;14.496;2023-09-19T05:17:37;98511.03;;;16.65;79.11
81243;BME280;70716;50.074;14.496;2023-09-19T05:20:14;98513.63;;;16.58;79.46
81243;BME280;70716;50.074;14.496;2023-09-19T05:22:57;98503.78;;;16.57;79.44
81243;BME280;70716;50.074;14.496;2023-09-19T05:25:23;98509.28;;;16.57;79.52
81243;BME280;70716;50.074;14.496;2023-09-19T05:27:53;98508.13;;;16.58;79.76
81243;BME280;70716;50.074;14.496;2023-09-19T05:30:18;98513.25;;;16.60;79.27
81243;BME280;70716;50.074;14.496;2023-09-19T05:32:45;98512.47;;;16.59;79.43
81243;BME280;70716;50.074;14.496;2023-09-19T05:35:12;98516.81;;;16.60;79.27
81243;BME280;70716;50.074;14.496;2023-09-19T05:37:38;98514.41;;;16.59;79.46
81243;BME280;70716;50.074;14.496;2023-09-19T05:40:04;98512.81;;;16.58;79.84
81243;BME280;70716;50.074;14.496;2023-09-19T05:42:35;98514.34;;;16.55;79.72
81243;BME280;70716;50.074;14.496;2023-09-19T05:45:01;98521.44;;;16.56;80.12
81243;BME280;70716;50.074;14.496;2023-09-19T05:47:26;98523.53;;;16.63;79.46
81243;BME280;70716;50.074;14.496;2023-09-19T05:49:52;98526.38;;;16.66;79.09
81243;BME280;70716;50.074;14.496;2023-09-19T05:52:21;98517.75;;;16.68;79.52
81243;BME280;70716;50.074;14.496;2023-09-19T05:54:47;98519.56;;;16.60;79.64
81243;BME280;70716;50.074;14.496;2023-09-19T05:57:12;98521.56;;;16.63;79.64
81243;BME280;70716;50.074;14.496;2023-09-19T05:59:38;98518.81;;;16.63;79.47
81243;BME280;70716;50.074;14.496;2023-09-19T06:02:08;98518.81;;;16.63;79.34
81243;BME280;70716;50.074;14.496;2023-09-19T06:04:35;98524.56;;;16.74;79.05
81243;BME280;70716;50.074;14.496;2023-09-19T06:07:00;98530.44;;;16.72;78.89
81243;BME280;70716;50.074;14.496;2023-09-19T06:09:27;98534.88;;;16.80;79.36
81243;BME280;70716;50.074;14.496;2023-09-19T06:11:53;98536.59;;;16.89;78.75
81243;BME280;70716;50.074;14.496;2023-09-19T06:14:21;98545.66;;;16.89;78.47
81243;BME280;70716;50.074;14.496;2023-09-19T06:16:49;98552.16;;;17.00;78.20
81243;BME280;70716;50.074;14.496;2023-09-19T06:19:15;98557.38;;;17.05;77.70
81243;BME280;70716;50.074;14.496;2023-09-19T06:21:40;98570.47;;;17.12;77.73
81243;BME280;70716;50.074;14.496;2023-09-19T06:24:06;98572.91;;;17.17;77.23
81243;BME280;70716;50.074;14.496;2023-09-19T06:26:35;98568.22;;;17.17;77.49
81243;BME280;70716;50.074;14.496;2023-09-19T06:29:00;98584.50;;;17.26;77.08
81243;BME280;70716;50.074;14.496;2023-09-19T06:31:25;98591.75;;;17.38;76.68
81243;BME280;70716;50.074;14.496;2023-09-19T06:33:53;98588.75;;;17.46;76.24
81243;BME280;70716;50.074;14.496;2023-09-19T06:36:19;98587.72;;;17.55;76.15
81243;BME280;70716;50.074;14.496;2023-09-19T06:38:45;98592.91;;;17.60;76.19
81243;BME280;70716;50.074;14.496;2023-09-19T06:41:11;98606.38;;;17.65;75.88
81243;BME280;70716;50.074;14.496;2023-09-19T06:43:36;98604.19;;;17.74;75.52
81243;BME280;70716;50.074;14.496;2023-09-19T06:46:02;98611.06;;;17.84;74.44
81243;BME280;70716;50.074;14.496;2023-09-19T06:48:27;98606.34;;;17.84;74.62
81243;BME280;70716;50.074;14.496;2023-09-19T06:50:57;98606.28;;;17.80;74.52
81243;BME280;70716;50.074;14.496;2023-09-19T06:53:24;98615.09;;;17.93;74.53
81243;BME280;70716;50.074;14.496;2023-09-19T06:55:55;98622.06;;;18.10;74.47
81243;BME280;70716;50.074;14.496;2023-09-19T06:58:21;98611.19;;;18.21;74.30
81243;BME280;70716;50.074;14.496;2023-09-19T07:00:46;98620.38;;;18.28;73.94
81243;BME280;70716;50.074;14.496;2023-09-19T07:03:13;98614.53;;;18.33;72.45
81243;BME280;70716;50.074;14.496;2023-09-19T07:05:43;98620.56;;;18.42;72.01
81243;BME280;70716;50.074;14.496;2023-09-19T07:08:09;98622.19;;;18.47;73.05
81243;BME280;70716;50.074;14.496;2023-09-19T07:10:38;98627.41;;;18.56;71.84
81243;BME280;70716;50.074;14.496;2023-09-19T07:13:06;98622.03;;;18.63;72.03
81243;BME280;70716;50.074;14.496;2023-09-19T07:15:37;98620.81;;;18.60;72.02
81243;BME280;70716;50.074;14.496;2023-09-19T07:18:12;98627.31;;;18.75;71.67
81243;BME280;70716;50.074;14.496;2023-09-19T07:20:39;98631.31;;;18.81;70.95
81243;BME280;70716;50.074;14.496;2023-09-19T07:23:08;98642.09;;;18.90;70.51
81243;BME280;70716;50.074;14.496;2023-09-19T07:25:35;98640.75;;;19.13;70.03
81243;BME280;70716;50.074;14.496;2023-09-19T07:28:01;98650.41;;;19.30;68.88
81243;BME280;70716;50.074;14.496;2023-09-19T07:30:26;98650.88;;;19.36;68.81
81243;BME280;70716;50.074;14.496;2023-09-19T07:32:53;98654.72;;;19.28;68.67
81243;BME280;70716;50.074;14.496;2023-09-19T07:35:18;98648.81;;;19.29;68.16
81243;BME280;70716;50.074;14.496;2023-09-19T07:37:50;98657.19;;;18.99;70.04
81243;BME280;70716;50.074;14.496;2023-09-19T07:40:19;98649.78;;;19.10;69.78
81243;BME280;70716;50.074;14.496;2023-09-19T07:42:45;98645.75;;;19.01;69.21
81243;BME280;70716;50.074;14.496;2023-09-19T07:45:14;98654.56;;;19.13;69.56
81243;BME280;70716;50.074;14.496;2023-09-19T07:47:48;98657.75;;;19.16;69.05
81243;BME280;70716;50.074;14.496;2023-09-19T07:50:18;98656.53;;;19.13;69.36
81243;BME280;70716;50.074;14.496;2023-09-19T07:52:52;98660.94;;;19.18;69.01
81243;BME280;70716;50.074;14.496;2023-09-19T07:55:21;98661.72;;;19.18;69.01
81243;BME280;70716;50.074;14.496;2023-09-19T07:57:51;98654.53;;;19.10;68.58
81243;BME280;70716;50.074;14.496;2023-09-19T08:00:17;98663.66;;;19.14;68.66
81243;BME280;70716;50.074;14.496;2023-09-19T08:02:43;98660.97;;;19.21;69.44
81243;BME280;70716;50.074;14.496;2023-09-19T08:05:14;98673.44;;;19.41;68.01
81243;BME280;70716;50.074;14.496;2023-09-19T08:07:45;98663.91;;;19.39;67.96
81243;BME280;70716;50.074;14.496;2023-09-19T08:10:17;98658.19;;;19.55;66.58
81243;BME280;70716;50.074;14.496;2023-09-19T08:12:45;98661.03;;;19.65;66.85
81243;BME280;70716;50.074;14.496;2023-09-19T08:15:19;98668.25;;;19.77;65.31
81243;BME280;70716;50.074;14.496;2023-09-19T08:17:48;98677.81;;;19.87;65.61
81243;BME280;70716;50.074;14.496;2023-09-19T08:20:13;98681.06;;;19.96;65.59
81243;BME280;70716;50.074;14.496;2023-09-19T08:22:52;98678.16;;;20.33;64.26
81243;BME280;70716;50.074;14.496;2023-09-19T08:25:20;98687.13;;;20.67;64.00
81243;BME280;70716;50.074;14.496;2023-09-19T08:27:51;98681.72;;;21.02;62.43
81243;BME280;70716;50.074;14.496;2023-09-19T08:30:20;98677.44;;;21.19;61.75
81243;BME280;70716;50.074;14.496;2023-09-19T08:32:49;98687.22;;;20.92;61.71
81243;BME280;70716;50.074;14.496;2023-09-19T08:35:16;98687.97;;;20.82;61.64
81243;BME280;70716;50.074;14.496;2023-09-19T08:37:42;98686.41;;;20.88;62.55
81243;BME280;70716;50.074;14.496;2023-09-19T08:40:10;98683.34;;;21.14;60.90
81243;BME280;70716;50.074;14.496;2023-09-19T08:42:52;98687.19;;;20.85;60.61
81243;BME280;70716;50.074;14.496;2023-09-19T08:45:20;98691.22;;;21.01;61.92
81243;BME280;70716;50.074;14.496;2023-09-19T08:48:16;98692.75;;;20.92;61.25
81243;BME280;70716;50.074;14.496;2023-09-19T08:50:52;98698.25;;;20.85;60.62
81243;BME280;70716;50.074;14.496;2023-09-19T08:53:26;98705.34;;;20.75;61.97
81243;BME280;70716;50.074;14.496;2023-09-19T08:55:55;98711.72;;;20.86;60.86
81243;BME280;70716;50.074;14.496;2023-09-19T08:58:26;98706.16;;;20.75;60.88
81243;BME280;70716;50.074;14.496;2023-09-19T09:00:56;98712.50;;;20.83;61.56
81243;BME280;70716;50.074;14.496;2023-09-19T09:03:25;98712.50;;;20.83;60.71
81243;BME280;70716;50.074;14.496;2023-09-19T09:05:51;98712.25;;;21.17;60.20
81243;BME280;70716;50.074;14.496;2023-09-19T09:08:20;98711.97;;;21.32;58.94
81243;BME280;70716;50.074;14.496;2023-09-19T09:10:46;98716.81;;;21.89;59.46
81243;BME280;70716;50.074;14.496;2023-09-19T09:13:16;98715.66;;;22.22;57.56
81243;BME280;70716;50.074;14.496;2023-09-19T09:15:42;98722.78;;;22.51;56.22
81243;BME280;70716;50.074;14.496;2023-09-19T09:18:12;98722.34;;;22.70;55.96
81243;BME280;70716;50.074;14.496;2023-09-19T09:20:38;98727.50;;;22.86;53.50
81243;BME280;70716;50.074;14.496;2023-09-19T09:23:04;98716.38;;;22.65;53.59
81243;BME280;70716;50.074;14.496;2023-09-19T09:28:30;98715.59;;;22.68;53.85
81243;BME280;70716;50.074;14.496;2023-09-19T09:30:56;98718.38;;;22.71;55.32
81243;BME280;70716;50.074;14.496;2023-09-19T09:33:24;98714.81;;;22.53;54.47
81243;BME280;70716;50.074;14.496;2023-09-19T09:36:16;98716.84;;;22.21;55.08
81243;BME280;70716;50.074;14.496;2023-09-19T09:38:47;98725.19;;;22.21;55.53
81243;BME280;70716;50.074;14.496;2023-09-19T09:41:38;98721.59;;;22.17;55.03
81243;BME280;70716;50.074;14.496;2023-09-19T09:44:16;98723.56;;;22.02;55.43
81243;BME280;70716;50.074;14.496;2023-09-19T09:46:47;98711.31;;;22.14;55.36
81243;BME280;70716;50.074;14.496;2023-09-19T09:49:24;98706.16;;;22.19;54.65
81243;BME280;70716;50.074;14.496;2023-09-19T09:52:06;98707.34;;;22.11;54.63
81243;BME280;70716;50.074;14.496;2023-09-19T09:55:01;98691.88;;;22.28;54.31
81243;BME280;70716;50.074;14.496;2023-09-19T09:57:30;98692.66;;;22.28;54.17
81243;BME280;70716;50.074;14.496;2023-09-19T09:59:57;98689.50;;;22.16;54.50
81243;BME280;70716;50.074;14.496;2023-09-19T10:02:36;98694.63;;;21.92;54.74
81243;BME280;70716;50.074;14.496;2023-09-19T10:05:13;98691.06;;;22.06;53.78
81243;BME280;70716;50.074;14.496;2023-09-19T10:07:41;98698.63;;;22.09;52.86
81243;BME280;70716;50.074;14.496;2023-09-19T10:12:55;98702.19;;;22.24;54.48
81243;BME280;70716;50.074;14.496;2023-09-19T10:15:32;98703.72;;;22.53;54.50
81243;BME280;70716;50.074;14.496;2023-09-19T10:18:00;98706.06;;;22.69;53.48
81243;BME280;70716;50.074;14.496;2023-09-19T10:20:28;98705.22;;;22.97;51.34
81243;BME280;70716;50.074;14.496;2023-09-19T10:23:22;98716.31;;;23.08;51.16
81243;BME280;70716;50.074;14.496;2023-09-19T10:25:52;98712.69;;;23.14;50.33
81243;BME280;70716;50.074;14.496;2023-09-19T10:28:20;98714.78;;;22.89;51.34
81243;BME280;70716;50.074;14.496;2023-09-19T10:30:52;98720.22;;;23.14;51.31
81243;BME280;70716;50.074;14.496;2023-09-19T10:33:23;98715.03;;;23.26;50.20
81243;BME280;70716;50.074;14.496;2023-09-19T10:35:56;98717.84;;;23.16;50.18
81243;BME280;70716;50.074;14.496;2023-09-19T10:38:27;98722.19;;;23.20;49.95
81243;BME280;70716;50.074;14.496;2023-09-19T10:40:55;98715.22;;;22.59;51.23
81243;BME280;70716;50.074;14.496;2023-09-19T10:43:34;98716.06;;;22.38;52.73
81243;BME280;70716;50.074;14.496;2023-09-19T10:46:08;98716.84;;;22.38;52.54
81243;BME280;70716;50.074;14.496;2023-09-19T10:48:38;98709.25;;;22.57;51.79
81243;BME280;70716;50.074;14.496;2023-09-19T10:51:20;98712.88;;;22.47;51.67
81243;BME280;70716;50.074;14.496;2023-09-19T10:53:59;98709.66;;;22.59;51.08
81243;BME280;70716;50.074;14.496;2023-09-19T10:56:38;98701.38;;;22.37;48.87
81243;BME280;70716;50.074;14.496;2023-09-19T10:59:08;98697.81;;;22.37;47.92
81243;BME280;70716;50.074;14.496;2023-09-19T11:02:15;98699.41;;;22.31;45.56
81243;BME280;70716;50.074;14.496;2023-09-19T11:04:42;98702.19;;;22.17;46.43
81243;BME280;70716;50.074;14.496;2023-09-19T11:07:11;98699.41;;;22.06;46.25
81243;BME280;70716;50.074;14.496;2023-09-19T11:09:53;98714.47;;;22.08;47.50
81243;BME280;70716;50.074;14.496;2023-09-19T11:15:07;98700.59;;;22.33;45.95
81243;BME280;70716;50.074;14.496;2023-09-19T11:17:41;98698.22;;;22.28;46.15
81243;BME280;70716;50.074;14.496;2023-09-19T11:30:42;98694.66;;;22.10;48.39
81243;BME280;70716;50.074;14.496;2023-09-19T11:33:17;98703.72;;;21.96;49.30
81243;BME280;70716;50.074;14.496;2023-09-19T11:49:16;98693.47;;;22.22;49.15
81243;BME280;70716;50.074;14.496;2023-09-19T11:51:46;98690.28;;;22.09;48.61
81243;BME280;70716;50.074;14.496;2023-09-19T11:54:13;98705.75;;;22.03;48.79
81243;BME280;70716;50.074;14.496;2023-09-19T11:56:49;98689.09;;;22.03;49.44
81243;BME280;70716;50.074;14.496;2023-09-19T11:59:25;98704.94;;;22.10;47.93
81243;BME280;70716;50.074;14.496;2023-09-19T12:02:04;98700.59;;;22.16;47.20
81243;BME280;70716;50.074;14.496;2023-09-19T12:04:45;98696.22;;;22.15;46.81
81243;BME280;70716;50.074;14.496;2023-09-19T12:07:19;98708.91;;;22.19;46.56
81243;BME280;70716;50.074;14.496;2023-09-19T12:09:51;98701.00;;;22.21;46.71
81243;BME280;70716;50.074;14.496;2023-09-19T12:12:27;98703.38;;;22.26;45.32
81243;BME280;70716;50.074;14.496;2023-09-19T12:14:53;98702.56;;;22.29;45.52
81243;BME280;70716;50.074;14.496;2023-09-19T12:17:22;98700.59;;;22.33;46.95
81243;BME280;70716;50.074;14.496;2023-09-19T12:19:53;98708.53;;;22.35;45.83
81243;BME280;70716;50.074;14.496;2023-09-19T12:22:23;98699.78;;;22.36;45.43
81243;BME280;70716;50.074;14.496;2023-09-19T12:24:53;98696.22;;;22.39;45.33
81243;BME280;70716;50.074;14.496;2023-09-19T12:27:24;98689.47;;;22.40;45.00
81243;BME280;70716;50.074;14.496;2023-09-19T12:29:53;98696.22;;;22.43;44.34
81243;BME280;70716;50.074;14.496;2023-09-19T12:32:34;98698.59;;;22.48;43.95
81243;BME280;70716;50.074;14.496;2023-09-19T12:35:04;98693.44;;;22.43;42.93
81243;BME280;70716;50.074;14.496;2023-09-19T12:37:44;98684.72;;;22.41;43.57
81243;BME280;70716;50.074;14.496;2023-09-19T12:40:13;98679.56;;;22.50;43.42
81243;BME280;70716;50.074;14.496;2023-09-19T12:42:48;98681.50;;;22.57;43.78
81243;BME280;70716;50.074;14.496;2023-09-19T12:45:15;98689.41;;;22.58;45.38
81243;BME280;70716;50.074;14.496;2023-09-19T12:51:09;98682.69;;;22.56;44.50
81243;BME280;70716;50.074;14.496;2023-09-19T12:53:44;98672.75;;;22.58;43.03
81243;BME280;70716;50.074;14.496;2023-09-19T12:56:19;98673.91;;;22.71;43.91
81243;BME280;70716;50.074;14.496;2023-09-19T12:58:58;98674.31;;;22.84;42.15
81243;BME280;70716;50.074;14.496;2023-09-19T13:01:28;98682.91;;;23.11;42.51
81243;BME280;70716;50.074;14.496;2023-09-19T13:04:20;98688.81;;;23.27;41.47
81243;BME280;70716;50.074;14.496;2023-09-19T13:06:55;98674.50;;;23.25;40.77
81243;BME280;70716;50.074;14.496;2023-09-19T13:09:26;98674.53;;;23.22;41.94
81243;BME280;70716;50.074;14.496;2023-09-19T13:12:04;98685.25;;;23.23;41.99
81243;BME280;70716;50.074;14.496;2023-09-19T13:14:34;98671.72;;;23.29;41.30
81243;BME280;70716;50.074;14.496;2023-09-19T13:17:07;98675.31;;;23.26;41.42
81243;BME280;70716;50.074;14.496;2023-09-19T13:19:48;98670.25;;;23.07;40.60
81243;BME280;70716;50.074;14.496;2023-09-19T13:25:12;98661.94;;;23.03;41.67
81243;BME280;70716;50.074;14.496;2023-09-19T13:27:53;98662.72;;;23.07;40.89
81243;BME280;70716;50.074;14.496;2023-09-19T13:30:20;98665.88;;;23.09;41.37
81243;BME280;70716;50.074;14.496;2023-09-19T13:32:47;98669.38;;;23.20;41.02
81243;BME280;70716;50.074;14.496;2023-09-19T13:35:14;98670.56;;;23.23;40.89
81243;BME280;70716;50.074;14.496;2023-09-19T13:37:40;98663.44;;;23.15;39.77
81243;BME280;70716;50.074;14.496;2023-09-19T13:40:13;98661.13;;;23.10;39.16
81243;BME280;70716;50.074;14.496;2023-09-19T13:42:43;98654.00;;;23.01;38.75
81243;BME280;70716;50.074;14.496;2023-09-19T13:45:09;98660.41;;;22.91;38.67
81243;BME280;70716;50.074;14.496;2023-09-19T13:47:38;98662.00;;;22.85;38.41
81243;BME280;70716;50.074;14.496;2023-09-19T13:50:04;98652.47;;;22.86;38.01
81243;BME280;70716;50.074;14.496;2023-09-19T13:52:33;98667.53;;;22.92;39.35
81243;BME280;70716;50.074;14.496;2023-09-19T13:54:59;98672.31;;;22.92;38.63
81243;BME280;70716;50.074;14.496;2023-09-19T13:57:25;98661.19;;;22.92;39.69
81243;BME280;70716;50.074;14.496;2023-09-19T13:59:51;98667.53;;;22.92;39.72
81243;BME280;70716;50.074;14.496;2023-09-19T14:02:17;98667.53;;;22.96;39.93
81243;BME280;70716;50.074;14.496;2023-09-19T14:04:44;98673.06;;;22.96;40.42